sensor_id;sensor_type;location;lat;lon;timestamp;P1;durP1;ratioP1;P2;durP2;ratioP2
42098;SDS011;27758;55.900;8.516;2023-03-01T00:01:07;18.40;;;7.90;;
42098;SDS011;27758;55.900;8.516;2023-03-01T00:03:44;20.67;;;9.25;;
42098;SDS011;27758;55.900;8.516;2023-03-01T00:06:10;14.90;;;6.95;;
42098;SDS011;27758;55.900;8.516;2023-03-01T00:08:36;16.58;;;7.28;;
42098;SDS011;27758;55.900;8.516;2023-03-01T00:11:04;16.13;;;7.75;;
42098;SDS011;27758;55.900;8.516;2023-03-01T00:13:31;13.43;;;6.88;;
42098;SDS011;27758;55.900;8.516;2023-03-01T00:15:58;14.32;;;7.13;;
42098;SDS011;27758;55.900;8.516;2023-03-01T00:18:24;17.20;;;7.47;;
42098;SDS011;27758;55.900;8.516;2023-03-01T00:20:50;12.00;;;6.65;;
42098;SDS011;27758;55.900;8.516;2023-03-01T00:23:17;13.10;;;6.82;;
42098;SDS011;27758;55.900;8.516;2023-03-01T00:25:43;13.00;;;7.13;;
42098;SDS011;27758;55.900;8.516;2023-03-01T00:28:09;13.05;;;7.05;;
42098;SDS011;27758;55.900;8.516;2023-03-01T00:30:37;12.10;;;7.45;;
42098;SDS011;27758;55.900;8.516;2023-03-01T00:33:03;13.18;;;7.07;;
42098;SDS011;27758;55.900;8.516;2023-03-01T00:35:29;14.77;;;6.90;;
42098;SDS011;27758;55.900;8.516;2023-03-01T00:37:54;14.75;;;6.65;;
42098;SDS011;27758;55.900;8.516;2023-03-01T00:40:28;13.50;;;6.30;;
42098;SDS011;27758;55.900;8.516;2023-03-01T00:42:55;12.23;;;6.45;;
42098;SDS011;27758;55.900;8.516;2023-03-01T00:45:21;15.18;;;6.38;;
42098;SDS011;27758;55.900;8.516;2023-03-01T00:47:47;9.07;;;4.55;;
42098;SDS011;27758;55.900;8.516;2023-03-01T00:50:14;14.75;;;4.47;;
42098;SDS011;27758;55.900;8.516;2023-03-01T00:52:39;9.75;;;4.53;;
42098;SDS011;27758;55.900;8.516;2023-03-01T00:55:05;10.27;;;4.85;;
42098;SDS011;27758;55.900;8.516;2023-03-01T00:57:32;12.15;;;4.85;;
42098;SDS011;27758;55.900;8.516;2023-03-01T00:59:58;10.07;;;5.47;;
42098;SDS011;27758;55.900;8.516;2023-03-01T01:02:24;10.68;;;5.85;;
42098;SDS011;27758;55.900;8.516;2023-03-01T01:04:50;11.15;;;6.30;;
42098;SDS011;27758;55.900;8.516;2023-03-01T01:07:15;11.65;;;5.50;;
42098;SDS011;27758;55.900;8.516;2023-03-01T01:09:41;10.45;;;5.53;;
42098;SDS011;27758;55.900;8.516;2023-03-01T01:12:07;9.52;;;3.92;;
42098;SDS011;27758;55.900;8.516;2023-03-01T01:14:33;12.32;;;5.15;;
42098;SDS011;27758;55.900;8.516;2023-03-01T01:16:59;11.45;;;5.32;;
42098;SDS011;27758;55.900;8.516;2023-03-01T01:19:25;10.23;;;5.32;;
42098;SDS011;27758;55.900;8.516;2023-03-01T01:21:51;11.18;;;5.30;;
42098;SDS011;27758;55.900;8.516;2023-03-01T01:24:17;13.32;;;5.85;;
42098;SDS011;27758;55.900;8.516;2023-03-01T01:26:43;12.90;;;5.22;;
42098;SDS011;27758;55.900;8.516;2023-03-01T01:29:10;16.45;;;5.88;;
42098;SDS011;27758;55.900;8.516;2023-03-01T01:31:37;9.88;;;5.18;;
42098;SDS011;27758;55.900;8.516;2023-03-01T01:34:05;11.50;;;5.25;;
42098;SDS011;27758;55.900;8.516;2023-03-01T01:36:32;9.68;;;4.78;;
42098;SDS011;27758;55.900;8.516;2023-03-01T01:38:59;6.03;;;3.92;;
42098;SDS011;27758;55.900;8.516;2023-03-01T01:41:26;8.10;;;4.18;;
42098;SDS011;27758;55.900;8.516;2023-03-01T01:44:09;9.73;;;4.05;;
42098;SDS011;27758;55.900;8.516;2023-03-01T01:49:17;10.43;;;4.25;;
42098;SDS011;27758;55.900;8.516;2023-03-01T01:52:18;7.45;;;3.97;;
42098;SDS011;27758;55.900;8.516;2023-03-01T01:54:48;10.07;;;4.85;;
42098;SDS011;27758;55.900;8.516;2023-03-01T01:57:26;10.52;;;5.25;;
42098;SDS011;27758;55.900;8.516;2023-03-01T01:59:59;10.82;;;4.82;;
42098;SDS011;27758;55.900;8.516;2023-03-01T02:02:29;13.57;;;4.28;;
42098;SDS011;27758;55.900;8.516;2023-03-01T02:05:00;11.35;;;5.03;;
42098;SDS011;27758;55.900;8.516;2023-03-01T02:07:35;12.50;;;4.05;;
42098;SDS011;27758;55.900;8.516;2023-03-01T02:10:04;11.57;;;4.43;;
42098;SDS011;27758;55.900;8.516;2023-03-01T02:12:30;8.90;;;3.88;;
42098;SDS011;27758;55.900;8.516;2023-03-01T02:14:56;7.05;;;4.22;;
42098;SDS011;27758;55.900;8.516;2023-03-01T02:17:22;12.07;;;5.85;;
42098;SDS011;27758;55.900;8.516;2023-03-01T02:22:39;6.50;;;4.15;;
42098;SDS011;27758;55.900;8.516;2023-03-01T02:27:52;7.95;;;4.70;;
42098;SDS011;27758;55.900;8.516;2023-03-01T02:30:33;11.85;;;5.68;;
42098;SDS011;27758;55.900;8.516;2023-03-01T02:32:59;12.73;;;5.30;;
42098;SDS011;27758;55.900;8.516;2023-03-01T02:37:57;13.50;;;6.05;;
42098;SDS011;27758;55.900;8.516;2023-03-01T02:40:25;10.45;;;5.10;;
42098;SDS011;27758;55.900;8.516;2023-03-01T02:42:54;13.13;;;5.63;;
42098;SDS011;27758;55.900;8.516;2023-03-01T02:45:22;9.82;;;6.05;;
42098;SDS011;27758;55.900;8.516;2023-03-01T02:47:48;9.70;;;5.85;;
42098;SDS011;27758;55.900;8.516;2023-03-01T02:50:19;10.50;;;6.72;;
42098;SDS011;27758;55.900;8.516;2023-03-01T02:53:11;9.45;;;6.15;;
42098;SDS011;27758;55.900;8.516;2023-03-01T02:55:40;9.48;;;5.35;;
42098;SDS011;27758;55.900;8.516;2023-03-01T02:58:06;13.60;;;6.40;;
42098;SDS011;27758;55.900;8.516;2023-03-01T03:00:34;10.80;;;5.88;;
42098;SDS011;27758;55.900;8.516;2023-03-01T03:03:05;14.20;;;5.97;;
42098;SDS011;27758;55.900;8.516;2023-03-01T03:05:32;9.52;;;5.88;;
42098;SDS011;27758;55.900;8.516;2023-03-01T03:07:59;10.32;;;6.40;;
42098;SDS011;27758;55.900;8.516;2023-03-01T03:10:31;11.30;;;6.43;;
42098;SDS011;27758;55.900;8.516;2023-03-01T03:13:00;7.82;;;5.82;;
42098;SDS011;27758;55.900;8.516;2023-03-01T03:15:28;13.85;;;6.30;;
42098;SDS011;27758;55.900;8.516;2023-03-01T03:17:54;10.50;;;6.82;;
42098;SDS011;27758;55.900;8.516;2023-03-01T03:20:23;15.75;;;6.72;;
42098;SDS011;27758;55.900;8.516;2023-03-01T03:22:51;10.85;;;6.00;;
42098;SDS011;27758;55.900;8.516;2023-03-01T03:25:18;12.25;;;6.70;;
42098;SDS011;27758;55.900;8.516;2023-03-01T03:27:45;10.52;;;5.70;;
42098;SDS011;27758;55.900;8.516;2023-03-01T03:30:14;8.82;;;5.72;;
42098;SDS011;27758;55.900;8.516;2023-03-01T03:32:42;9.55;;;6.57;;
42098;SDS011;27758;55.900;8.516;2023-03-01T03:35:18;13.68;;;6.35;;
42098;SDS011;27758;55.900;8.516;2023-03-01T03:37:45;10.15;;;6.68;;
42098;SDS011;27758;55.900;8.516;2023-03-01T03:42:59;14.90;;;6.20;;
42098;SDS011;27758;55.900;8.516;2023-03-01T03:45:26;9.90;;;5.85;;
42098;SDS011;27758;55.900;8.516;2023-03-01T03:47:51;9.00;;;5.75;;
42098;SDS011;27758;55.900;8.516;2023-03-01T03:50:17;9.63;;;5.65;;
42098;SDS011;27758;55.900;8.516;2023-03-01T03:52:43;8.35;;;5.82;;
42098;SDS011;27758;55.900;8.516;2023-03-01T03:55:10;13.07;;;5.95;;
42098;SDS011;27758;55.900;8.516;2023-03-01T03:57:37;10.73;;;6.00;;
42098;SDS011;27758;55.900;8.516;2023-03-01T04:00:04;9.93;;;6.10;;
42098;SDS011;27758;55.900;8.516;2023-03-01T04:02:41;15.25;;;6.75;;
42098;SDS011;27758;55.900;8.516;2023-03-01T04:05:08;13.07;;;5.88;;
42098;SDS011;27758;55.900;8.516;2023-03-01T04:07:36;13.52;;;5.65;;
42098;SDS011;27758;55.900;8.516;2023-03-01T04:10:03;13.48;;;6.55;;
42098;SDS011;27758;55.900;8.516;2023-03-01T04:12:32;13.40;;;7.30;;
42098;SDS011;27758;55.900;8.516;2023-03-01T04:14:59;10.65;;;6.22;;
42098;SDS011;27758;55.900;8.516;2023-03-01T04:17:25;16.20;;;7.22;;
42098;SDS011;27758;55.900;8.516;2023-03-01T04:19:51;9.95;;;6.53;;
42098;SDS011;27758;55.900;8.516;2023-03-01T04:22:17;9.13;;;5.93;;
42098;SDS011;27758;55.900;8.516;2023-03-01T04:24:43;15.80;;;6.95;;
42098;SDS011;27758;55.900;8.516;2023-03-01T04:27:10;12.10;;;5.63;;
42098;SDS011;27758;55.900;8.516;2023-03-01T04:29:37;16.92;;;6.43;;
42098;SDS011;27758;55.900;8.516;2023-03-01T04:32:03;11.13;;;5.90;;
42098;SDS011;27758;55.900;8.516;2023-03-01T04:34:29;14.80;;;6.65;;
42098;SDS011;27758;55.900;8.516;2023-03-01T04:36:55;11.02;;;5.93;;
42098;SDS011;27758;55.900;8.516;2023-03-01T04:39:21;13.93;;;6.13;;
42098;SDS011;27758;55.900;8.516;2023-03-01T04:41:47;9.73;;;5.32;;
42098;SDS011;27758;55.900;8.516;2023-03-01T04:44:12;12.80;;;5.90;;
42098;SDS011;27758;55.900;8.516;2023-03-01T04:46:38;15.68;;;6.03;;
42098;SDS011;27758;55.900;8.516;2023-03-01T04:49:04;13.40;;;6.25;;
42098;SDS011;27758;55.900;8.516;2023-03-01T04:51:30;12.20;;;6.32;;
42098;SDS011;27758;55.900;8.516;2023-03-01T04:53:57;13.60;;;5.93;;
42098;SDS011;27758;55.900;8.516;2023-03-01T04:56:23;21.40;;;5.65;;
42098;SDS011;27758;55.900;8.516;2023-03-01T04:58:49;11.70;;;5.60;;
42098;SDS011;27758;55.900;8.516;2023-03-01T05:01:18;9.90;;;5.72;;
42098;SDS011;27758;55.900;8.516;2023-03-01T05:03:49;10.60;;;5.53;;
42098;SDS011;27758;55.900;8.516;2023-03-01T05:06:16;15.48;;;6.20;;
42098;SDS011;27758;55.900;8.516;2023-03-01T05:08:43;12.00;;;5.47;;
42098;SDS011;27758;55.900;8.516;2023-03-01T05:11:09;7.80;;;5.43;;
42098;SDS011;27758;55.900;8.516;2023-03-01T05:13:36;9.50;;;5.45;;
42098;SDS011;27758;55.900;8.516;2023-03-01T05:16:03;10.35;;;5.90;;
42098;SDS011;27758;55.900;8.516;2023-03-01T05:18:30;10.10;;;5.68;;
42098;SDS011;27758;55.900;8.516;2023-03-01T05:21:05;12.77;;;5.35;;
42098;SDS011;27758;55.900;8.516;2023-03-01T05:23:36;14.48;;;5.13;;
42098;SDS011;27758;55.900;8.516;2023-03-01T05:26:02;13.77;;;5.72;;
42098;SDS011;27758;55.900;8.516;2023-03-01T05:28:29;12.57;;;5.82;;
42098;SDS011;27758;55.900;8.516;2023-03-01T05:30:55;12.88;;;5.95;;
42098;SDS011;27758;55.900;8.516;2023-03-01T05:33:22;8.85;;;4.28;;
42098;SDS011;27758;55.900;8.516;2023-03-01T05:35:48;12.35;;;4.93;;
42098;SDS011;27758;55.900;8.516;2023-03-01T05:38:15;12.98;;;5.38;;
42098;SDS011;27758;55.900;8.516;2023-03-01T05:40:42;12.60;;;5.45;;
42098;SDS011;27758;55.900;8.516;2023-03-01T05:43:09;13.32;;;5.55;;
42098;SDS011;27758;55.900;8.516;2023-03-01T05:45:36;10.00;;;5.85;;
42098;SDS011;27758;55.900;8.516;2023-03-01T05:48:03;12.90;;;5.85;;
42098;SDS011;27758;55.900;8.516;2023-03-01T05:50:31;12.18;;;5.85;;
42098;SDS011;27758;55.900;8.516;2023-03-01T05:53:03;13.48;;;5.45;;
42098;SDS011;27758;55.900;8.516;2023-03-01T05:55:31;13.48;;;5.65;;
42098;SDS011;27758;55.900;8.516;2023-03-01T05:57:58;13.00;;;5.70;;
42098;SDS011;27758;55.900;8.516;2023-03-01T06:00:26;11.30;;;5.50;;
42098;SDS011;27758;55.900;8.516;2023-03-01T06:02:53;14.13;;;5.07;;
42098;SDS011;27758;55.900;8.516;2023-03-01T06:05:20;14.85;;;5.47;;
42098;SDS011;27758;55.900;8.516;2023-03-01T06:07:46;15.13;;;6.47;;
42098;SDS011;27758;55.900;8.516;2023-03-01T06:10:12;12.13;;;6.05;;
42098;SDS011;27758;55.900;8.516;2023-03-01T06:12:40;15.55;;;6.32;;
42098;SDS011;27758;55.900;8.516;2023-03-01T06:15:07;12.25;;;5.40;;
42098;SDS011;27758;55.900;8.516;2023-03-01T06:17:37;12.05;;;5.68;;
42098;SDS011;27758;55.900;8.516;2023-03-01T06:20:04;13.82;;;5.45;;
42098;SDS011;27758;55.900;8.516;2023-03-01T06:22:32;18.58;;;6.70;;
42098;SDS011;27758;55.900;8.516;2023-03-01T06:24:58;11.43;;;5.50;;
42098;SDS011;27758;55.900;8.516;2023-03-01T06:27:23;13.40;;;6.03;;
42098;SDS011;27758;55.900;8.516;2023-03-01T06:29:49;14.57;;;5.70;;
42098;SDS011;27758;55.900;8.516;2023-03-01T06:32:15;15.32;;;5.65;;
42098;SDS011;27758;55.900;8.516;2023-03-01T06:34:41;13.50;;;6.35;;
42098;SDS011;27758;55.900;8.516;2023-03-01T06:37:07;11.32;;;5.47;;
42098;SDS011;27758;55.900;8.516;2023-03-01T06:39:32;10.65;;;5.97;;
42098;SDS011;27758;55.900;8.516;2023-03-01T06:41:58;12.73;;;6.07;;
42098;SDS011;27758;55.900;8.516;2023-03-01T06:44:24;11.98;;;6.60;;
42098;SDS011;27758;55.900;8.516;2023-03-01T06:46:51;17.15;;;7.22;;
42098;SDS011;27758;55.900;8.516;2023-03-01T06:49:16;17.52;;;7.95;;
42098;SDS011;27758;55.900;8.516;2023-03-01T06:51:43;11.50;;;6.68;;
42098;SDS011;27758;55.900;8.516;2023-03-01T06:54:09;12.55;;;6.30;;
42098;SDS011;27758;55.900;8.516;2023-03-01T06:56:34;17.27;;;6.30;;
42098;SDS011;27758;55.900;8.516;2023-03-01T06:59:00;11.23;;;6.10;;
42098;SDS011;27758;55.900;8.516;2023-03-01T07:01:27;19.90;;;7.75;;
42098;SDS011;27758;55.900;8.516;2023-03-01T07:03:54;16.70;;;8.20;;
42098;SDS011;27758;55.900;8.516;2023-03-01T07:06:20;15.80;;;7.05;;
42098;SDS011;27758;55.900;8.516;2023-03-01T07:08:46;19.30;;;8.68;;
42098;SDS011;27758;55.900;8.516;2023-03-01T07:11:13;16.33;;;8.77;;
42098;SDS011;27758;55.900;8.516;2023-03-01T07:13:39;19.45;;;9.00;;
42098;SDS011;27758;55.900;8.516;2023-03-01T07:16:05;16.83;;;8.65;;
42098;SDS011;27758;55.900;8.516;2023-03-01T07:18:31;15.70;;;8.73;;
42098;SDS011;27758;55.900;8.516;2023-03-01T07:20:57;17.38;;;8.90;;
42098;SDS011;27758;55.900;8.516;2023-03-01T07:23:23;13.27;;;6.80;;
42098;SDS011;27758;55.900;8.516;2023-03-01T07:25:54;18.73;;;8.30;;
42098;SDS011;27758;55.900;8.516;2023-03-01T07:28:22;19.45;;;7.63;;
42098;SDS011;27758;55.900;8.516;2023-03-01T07:30:48;16.10;;;8.80;;
42098;SDS011;27758;55.900;8.516;2023-03-01T07:33:14;16.23;;;8.75;;
42098;SDS011;27758;55.900;8.516;2023-03-01T07:35:40;13.40;;;7.47;;
42098;SDS011;27758;55.900;8.516;2023-03-01T07:38:05;16.42;;;7.78;;
42098;SDS011;27758;55.900;8.516;2023-03-01T07:40:31;20.77;;;8.93;;
42098;SDS011;27758;55.900;8.516;2023-03-01T07:42:57;15.88;;;8.98;;
42098;SDS011;27758;55.900;8.516;2023-03-01T07:45:24;13.75;;;8.27;;
42098;SDS011;27758;55.900;8.516;2023-03-01T07:47:51;15.55;;;7.70;;
42098;SDS011;27758;55.900;8.516;2023-03-01T07:50:19;18.00;;;7.63;;
42098;SDS011;27758;55.900;8.516;2023-03-01T07:52:46;13.07;;;7.85;;
42098;SDS011;27758;55.900;8.516;2023-03-01T07:55:13;15.15;;;7.35;;
42098;SDS011;27758;55.900;8.516;2023-03-01T07:57:39;14.45;;;7.53;;
42098;SDS011;27758;55.900;8.516;2023-03-01T08:00:05;19.10;;;8.32;;
42098;SDS011;27758;55.900;8.516;2023-03-01T08:02:32;16.83;;;8.73;;
42098;SDS011;27758;55.900;8.516;2023-03-01T08:04:58;20.67;;;8.23;;
42098;SDS011;27758;55.900;8.516;2023-03-01T08:07:23;18.67;;;8.00;;
42098;SDS011;27758;55.900;8.516;2023-03-01T08:09:49;17.77;;;8.35;;
42098;SDS011;27758;55.900;8.516;2023-03-01T08:12:15;14.50;;;8.02;;
42098;SDS011;27758;55.900;8.516;2023-03-01T08:14:42;16.30;;;8.25;;
42098;SDS011;27758;55.900;8.516;2023-03-01T08:17:08;22.75;;;9.00;;
42098;SDS011;27758;55.900;8.516;2023-03-01T08:19:34;19.40;;;8.63;;
42098;SDS011;27758;55.900;8.516;2023-03-01T08:22:00;16.30;;;8.50;;
42098;SDS011;27758;55.900;8.516;2023-03-01T08:24:27;18.17;;;8.77;;
42098;SDS011;27758;55.900;8.516;2023-03-01T08:26:53;21.55;;;9.23;;
42098;SDS011;27758;55.900;8.516;2023-03-01T08:29:19;21.92;;;8.80;;
42098;SDS011;27758;55.900;8.516;2023-03-01T08:31:45;18.15;;;8.57;;
42098;SDS011;27758;55.900;8.516;2023-03-01T08:34:13;19.17;;;9.57;;
42098;SDS011;27758;55.900;8.516;2023-03-01T08:36:41;15.80;;;8.02;;
42098;SDS011;27758;55.900;8.516;2023-03-01T08:39:09;16.80;;;8.77;;
42098;SDS011;27758;55.900;8.516;2023-03-01T08:41:37;21.77;;;9.23;;
42098;SDS011;27758;55.900;8.516;2023-03-01T08:44:04;18.92;;;8.65;;
42098;SDS011;27758;55.900;8.516;2023-03-01T08:46:32;13.80;;;8.63;;
42098;SDS011;27758;55.900;8.516;2023-03-01T08:49:03;12.95;;;7.68;;
42098;SDS011;27758;55.900;8.516;2023-03-01T08:51:30;18.75;;;8.05;;
42098;SDS011;27758;55.900;8.516;2023-03-01T08:53:57;15.90;;;8.15;;
42098;SDS011;27758;55.900;8.516;2023-03-01T08:56:23;18.27;;;8.82;;
42098;SDS011;27758;55.900;8.516;2023-03-01T08:58:49;15.32;;;8.75;;
42098;SDS011;27758;55.900;8.516;2023-03-01T09:01:16;19.23;;;8.77;;
42098;SDS011;27758;55.900;8.516;2023-03-01T09:03:43;21.10;;;8.93;;
42098;SDS011;27758;55.900;8.516;2023-03-01T09:06:10;18.08;;;10.38;;
42098;SDS011;27758;55.900;8.516;2023-03-01T09:08:41;19.25;;;9.18;;
42098;SDS011;27758;55.900;8.516;2023-03-01T09:11:08;18.63;;;9.25;;
42098;SDS011;27758;55.900;8.516;2023-03-01T09:13:35;17.92;;;9.07;;
42098;SDS011;27758;55.900;8.516;2023-03-01T09:16:02;14.90;;;8.25;;
42098;SDS011;27758;55.900;8.516;2023-03-01T09:18:29;14.85;;;8.65;;
42098;SDS011;27758;55.900;8.516;2023-03-01T09:21:09;15.50;;;7.65;;
42098;SDS011;27758;55.900;8.516;2023-03-01T09:23:37;19.40;;;8.85;;
42098;SDS011;27758;55.900;8.516;2023-03-01T09:26:05;17.80;;;8.45;;
42098;SDS011;27758;55.900;8.516;2023-03-01T09:28:31;20.58;;;8.73;;
42098;SDS011;27758;55.900;8.516;2023-03-01T09:30:59;24.92;;;8.85;;
42098;SDS011;27758;55.900;8.516;2023-03-01T09:33:27;12.70;;;7.80;;
42098;SDS011;27758;55.900;8.516;2023-03-01T09:36:04;15.32;;;7.85;;
42098;SDS011;27758;55.900;8.516;2023-03-01T09:38:32;16.85;;;8.32;;
42098;SDS011;27758;55.900;8.516;2023-03-01T09:40:59;13.05;;;8.10;;
42098;SDS011;27758;55.900;8.516;2023-03-01T09:46:12;19.35;;;8.27;;
42098;SDS011;27758;55.900;8.516;2023-03-01T09:48:52;14.30;;;8.52;;
42098;SDS011;27758;55.900;8.516;2023-03-01T09:51:32;20.88;;;8.90;;
42098;SDS011;27758;55.900;8.516;2023-03-01T09:54:03;19.83;;;8.75;;
42098;SDS011;27758;55.900;8.516;2023-03-01T09:56:40;17.20;;;7.97;;
42098;SDS011;27758;55.900;8.516;2023-03-01T10:09:53;9.73;;;6.22;;
42098;SDS011;27758;55.900;8.516;2023-03-01T10:12:30;12.80;;;6.55;;
42098;SDS011;27758;55.900;8.516;2023-03-01T10:15:22;10.32;;;6.18;;
42098;SDS011;27758;55.900;8.516;2023-03-01T10:17:55;11.43;;;6.50;;
42098;SDS011;27758;55.900;8.516;2023-03-01T10:23:18;9.35;;;5.53;;
42098;SDS011;27758;55.900;8.516;2023-03-01T10:34:14;10.75;;;5.93;;
42098;SDS011;27758;55.900;8.516;2023-03-01T10:39:34;12.50;;;6.32;;
42098;SDS011;27758;55.900;8.516;2023-03-01T10:42:04;11.65;;;5.90;;
42098;SDS011;27758;55.900;8.516;2023-03-01T10:44:48;13.05;;;6.00;;
42098;SDS011;27758;55.900;8.516;2023-03-01T10:52:54;12.48;;;5.15;;
42098;SDS011;27758;55.900;8.516;2023-03-01T11:00:57;11.15;;;5.82;;
42098;SDS011;27758;55.900;8.516;2023-03-01T11:03:29;7.72;;;5.13;;
42098;SDS011;27758;55.900;8.516;2023-03-01T11:05:59;9.05;;;5.93;;
42098;SDS011;27758;55.900;8.516;2023-03-01T11:08:43;9.50;;;5.43;;
42098;SDS011;27758;55.900;8.516;2023-03-01T11:16:29;14.55;;;6.07;;
42098;SDS011;27758;55.900;8.516;2023-03-01T11:19:04;11.07;;;5.95;;
42098;SDS011;27758;55.900;8.516;2023-03-01T11:21:43;11.10;;;6.25;;
42098;SDS011;27758;55.900;8.516;2023-03-01T11:24:13;13.77;;;6.38;;
42098;SDS011;27758;55.900;8.516;2023-03-01T11:26:41;9.73;;;6.35;;
42098;SDS011;27758;55.900;8.516;2023-03-01T11:29:21;12.25;;;6.30;;
42098;SDS011;27758;55.900;8.516;2023-03-01T11:32:09;10.27;;;5.78;;
42098;SDS011;27758;55.900;8.516;2023-03-01T11:34:55;11.77;;;5.45;;
42098;SDS011;27758;55.900;8.516;2023-03-01T11:37:32;12.02;;;6.20;;
42098;SDS011;27758;55.900;8.516;2023-03-01T11:40:23;9.55;;;6.28;;
42098;SDS011;27758;55.900;8.516;2023-03-01T11:43:13;13.98;;;5.90;;
42098;SDS011;27758;55.900;8.516;2023-03-01T11:52:03;9.85;;;6.18;;
42098;SDS011;27758;55.900;8.516;2023-03-01T11:54:52;8.35;;;5.95;;
42098;SDS011;27758;55.900;8.516;2023-03-01T12:12:07;15.98;;;8.68;;
42098;SDS011;27758;55.900;8.516;2023-03-01T12:22:54;14.50;;;8.40;;
42098;SDS011;27758;55.900;8.516;2023-03-01T12:31:16;16.73;;;8.65;;
42098;SDS011;27758;55.900;8.516;2023-03-01T12:42:40;17.75;;;9.77;;
42098;SDS011;27758;55.900;8.516;2023-03-01T12:51:12;18.50;;;10.90;;
42098;SDS011;27758;55.900;8.516;2023-03-01T12:53:45;15.82;;;10.45;;
42098;SDS011;27758;55.900;8.516;2023-03-01T12:56:21;18.75;;;10.73;;
42098;SDS011;27758;55.900;8.516;2023-03-01T12:59:04;21.27;;;11.48;;
42098;SDS011;27758;55.900;8.516;2023-03-01T13:07:41;19.17;;;10.63;;
42098;SDS011;27758;55.900;8.516;2023-03-01T13:13:03;18.90;;;11.43;;
42098;SDS011;27758;55.900;8.516;2023-03-01T13:15:46;19.15;;;10.93;;
42098;SDS011;27758;55.900;8.516;2023-03-01T13:23:23;18.88;;;10.95;;
42098;SDS011;27758;55.900;8.516;2023-03-01T13:31:02;19.77;;;10.55;;
42098;SDS011;27758;55.900;8.516;2023-03-01T13:35:55;15.95;;;9.88;;
42098;SDS011;27758;55.900;8.516;2023-03-01T13:44:11;15.65;;;8.55;;
42098;SDS011;27758;55.900;8.516;2023-03-01T13:46:50;15.35;;;8.93;;
42098;SDS011;27758;55.900;8.516;2023-03-01T13:49:21;14.57;;;8.35;;
42098;SDS011;27758;55.900;8.516;2023-03-01T13:51:50;13.65;;;8.10;;
42098;SDS011;27758;55.900;8.516;2023-03-01T13:54:19;13.57;;;8.40;;
42098;SDS011;27758;55.900;8.516;2023-03-01T13:56:56;15.47;;;9.43;;
42098;SDS011;27758;55.900;8.516;2023-03-01T13:59:24;13.65;;;8.65;;
42098;SDS011;27758;55.900;8.516;2023-03-01T14:01:55;12.77;;;8.40;;
42098;SDS011;27758;55.900;8.516;2023-03-01T14:07:08;13.02;;;9.20;;
42098;SDS011;27758;55.900;8.516;2023-03-01T14:09:37;11.20;;;8.18;;
42098;SDS011;27758;55.900;8.516;2023-03-01T14:12:48;11.38;;;7.53;;
42098;SDS011;27758;55.900;8.516;2023-03-01T14:15:04;11.25;;;7.32;;
42098;SDS011;27758;55.900;8.516;2023-03-01T14:17:42;11.63;;;7.95;;
42098;SDS011;27758;55.900;8.516;2023-03-01T14:22:41;12.57;;;8.25;;
42098;SDS011;27758;55.900;8.516;2023-03-01T14:27:45;12.52;;;7.50;;
42098;SDS011;27758;55.900;8.516;2023-03-01T14:30:25;13.63;;;7.93;;
42098;SDS011;27758;55.900;8.516;2023-03-01T14:38:31;8.75;;;6.28;;
42098;SDS011;27758;55.900;8.516;2023-03-01T14:43:38;9.30;;;6.75;;
42098;SDS011;27758;55.900;8.516;2023-03-01T14:49:02;11.50;;;7.40;;
42098;SDS011;27758;55.900;8.516;2023-03-01T14:51:29;9.70;;;6.95;;
42098;SDS011;27758;55.900;8.516;2023-03-01T14:53:55;13.32;;;8.10;;
42098;SDS011;27758;55.900;8.516;2023-03-01T14:56:21;10.38;;;6.70;;
42098;SDS011;27758;55.900;8.516;2023-03-01T14:58:51;13.43;;;7.90;;
42098;SDS011;27758;55.900;8.516;2023-03-01T15:01:18;10.55;;;7.55;;
42098;SDS011;27758;55.900;8.516;2023-03-01T15:03:48;14.38;;;9.05;;
42098;SDS011;27758;55.900;8.516;2023-03-01T15:06:18;11.10;;;7.60;;
42098;SDS011;27758;55.900;8.516;2023-03-01T15:08:47;11.15;;;8.13;;
42098;SDS011;27758;55.900;8.516;2023-03-01T15:14:24;10.18;;;7.55;;
42098;SDS011;27758;55.900;8.516;2023-03-01T15:16:52;12.23;;;8.35;;
42098;SDS011;27758;55.900;8.516;2023-03-01T15:19:17;13.15;;;7.88;;
42098;SDS011;27758;55.900;8.516;2023-03-01T15:21:44;10.45;;;6.90;;
42098;SDS011;27758;55.900;8.516;2023-03-01T15:26:49;12.15;;;7.93;;
42098;SDS011;27758;55.900;8.516;2023-03-01T15:29:20;12.88;;;7.25;;
42098;SDS011;27758;55.900;8.516;2023-03-01T15:31:58;13.52;;;7.82;;
42098;SDS011;27758;55.900;8.516;2023-03-01T15:34:25;12.48;;;7.38;;
42098;SDS011;27758;55.900;8.516;2023-03-01T15:37:05;14.73;;;8.27;;
42098;SDS011;27758;55.900;8.516;2023-03-01T15:39:53;13.50;;;8.63;;
42098;SDS011;27758;55.900;8.516;2023-03-01T15:45:07;15.63;;;8.55;;
42098;SDS011;27758;55.900;8.516;2023-03-01T15:47:33;9.48;;;5.53;;
42098;SDS011;27758;55.900;8.516;2023-03-01T15:50:00;11.10;;;6.10;;
42098;SDS011;27758;55.900;8.516;2023-03-01T15:52:34;13.23;;;5.88;;
42098;SDS011;27758;55.900;8.516;2023-03-01T15:55:26;9.68;;;6.03;;
42098;SDS011;27758;55.900;8.516;2023-03-01T15:57:58;11.05;;;6.13;;
42098;SDS011;27758;55.900;8.516;2023-03-01T16:00:26;13.50;;;7.25;;
42098;SDS011;27758;55.900;8.516;2023-03-01T16:02:52;18.38;;;8.68;;
42098;SDS011;27758;55.900;8.516;2023-03-01T16:05:19;16.30;;;8.43;;
42098;SDS011;27758;55.900;8.516;2023-03-01T16:07:48;15.88;;;7.05;;
42098;SDS011;27758;55.900;8.516;2023-03-01T16:10:14;14.05;;;7.32;;
42098;SDS011;27758;55.900;8.516;2023-03-01T16:12:40;14.45;;;7.95;;
42098;SDS011;27758;55.900;8.516;2023-03-01T16:15:26;13.13;;;8.20;;
42098;SDS011;27758;55.900;8.516;2023-03-01T16:17:53;14.18;;;8.20;;
42098;SDS011;27758;55.900;8.516;2023-03-01T16:20:19;16.77;;;8.70;;
42098;SDS011;27758;55.900;8.516;2023-03-01T16:22:46;15.13;;;9.35;;
42098;SDS011;27758;55.900;8.516;2023-03-01T16:25:12;16.25;;;9.50;;
42098;SDS011;27758;55.900;8.516;2023-03-01T16:27:42;14.43;;;7.85;;
42098;SDS011;27758;55.900;8.516;2023-03-01T16:30:09;12.40;;;7.57;;
42098;SDS011;27758;55.900;8.516;2023-03-01T16:32:37;12.35;;;7.35;;
42098;SDS011;27758;55.900;8.516;2023-03-01T16:35:04;22.25;;;8.35;;
42098;SDS011;27758;55.900;8.516;2023-03-01T16:37:32;18.90;;;9.35;;
42098;SDS011;27758;55.900;8.516;2023-03-01T16:39:58;12.30;;;7.50;;
42098;SDS011;27758;55.900;8.516;2023-03-01T16:42:24;13.32;;;7.55;;
42098;SDS011;27758;55.900;8.516;2023-03-01T16:44:56;14.73;;;8.90;;
42098;SDS011;27758;55.900;8.516;2023-03-01T16:47:22;14.07;;;7.00;;
42098;SDS011;27758;55.900;8.516;2023-03-01T16:49:51;14.77;;;7.55;;
42098;SDS011;27758;55.900;8.516;2023-03-01T16:52:17;18.85;;;7.53;;
42098;SDS011;27758;55.900;8.516;2023-03-01T16:54:43;16.98;;;7.75;;
42098;SDS011;27758;55.900;8.516;2023-03-01T16:57:09;14.32;;;7.90;;
42098;SDS011;27758;55.900;8.516;2023-03-01T16:59:35;16.45;;;8.63;;
42098;SDS011;27758;55.900;8.516;2023-03-01T17:02:02;15.38;;;8.43;;
42098;SDS011;27758;55.900;8.516;2023-03-01T17:04:36;15.10;;;7.78;;
42098;SDS011;27758;55.900;8.516;2023-03-01T17:07:02;14.18;;;8.50;;
42098;SDS011;27758;55.900;8.516;2023-03-01T17:09:28;14.13;;;7.93;;
42098;SDS011;27758;55.900;8.516;2023-03-01T17:11:54;14.48;;;7.53;;
42098;SDS011;27758;55.900;8.516;2023-03-01T17:14:20;13.52;;;7.40;;
42098;SDS011;27758;55.900;8.516;2023-03-01T17:16:46;15.50;;;8.40;;
42098;SDS011;27758;55.900;8.516;2023-03-01T17:19:11;22.23;;;11.80;;
42098;SDS011;27758;55.900;8.516;2023-03-01T17:21:43;17.75;;;10.30;;
42098;SDS011;27758;55.900;8.516;2023-03-01T17:24:09;20.98;;;11.70;;
42098;SDS011;27758;55.900;8.516;2023-03-01T17:26:35;21.15;;;11.48;;
42098;SDS011;27758;55.900;8.516;2023-03-01T17:29:01;21.13;;;10.80;;